sensor_id;sensor_type;location;lat;lon;timestamp;P1;durP1;ratioP1;P2;durP2;ratioP2
48199;SDS011;33990;44.602;10.976;2022-07-21T00:00:36;12.30;;;10.95;;
48199;SDS011;33990;44.602;10.976;2022-07-21T00:03:04;11.75;;;10.55;;
48199;SDS011;33990;44.602;10.976;2022-07-21T00:05:31;11.98;;;10.50;;
48199;SDS011;33990;44.602;10.976;2022-07-21T00:07:59;12.48;;;11.20;;
48199;SDS011;33990;44.602;10.976;2022-07-21T00:10:26;13.18;;;11.13;;
48199;SDS011;33990;44.602;10.976;2022-07-21T00:12:55;11.75;;;10.57;;
48199;SDS011;33990;44.602;10.976;2022-07-21T00:15:23;11.88;;;10.75;;
48199;SDS011;33990;44.602;10.976;2022-07-21T00:17:53;11.82;;;10.68;;
48199;SDS011;33990;44.602;10.976;2022-07-21T00:20:21;11.48;;;10.38;;
48199;SDS011;33990;44.602;10.976;2022-07-21T00:22:49;12.00;;;10.77;;
48199;SDS011;33990;44.602;10.976;2022-07-21T00:25:16;11.13;;;9.85;;
48199;SDS011;33990;44.602;10.976;2022-07-21T00:27:44;12.50;;;11.20;;
48199;SDS011;33990;44.602;10.976;2022-07-21T00:30:11;10.88;;;9.85;;
48199;SDS011;33990;44.602;10.976;2022-07-21T00:32:39;12.25;;;10.95;;
48199;SDS011;33990;44.602;10.976;2022-07-21T00:35:08;11.73;;;10.60;;
48199;SDS011;33990;44.602;10.976;2022-07-21T00:37:36;12.57;;;10.68;;
48199;SDS011;33990;44.602;10.976;2022-07-21T00:40:05;12.52;;;11.23;;
48199;SDS011;33990;44.602;10.976;2022-07-21T00:42:34;11.48;;;10.30;;
48199;SDS011;33990;44.602;10.976;2022-07-21T00:45:04;12.48;;;9.82;;
48199;SDS011;33990;44.602;10.976;2022-07-21T00:47:33;12.32;;;11.02;;
48199;SDS011;33990;44.602;10.976;2022-07-21T00:50:02;11.23;;;10.13;;
48199;SDS011;33990;44.602;10.976;2022-07-21T00:52:32;11.75;;;10.55;;
48199;SDS011;33990;44.602;10.976;2022-07-21T00:54:59;12.30;;;11.07;;
48199;SDS011;33990;44.602;10.976;2022-07-21T00:57:28;12.20;;;10.93;;
48199;SDS011;33990;44.602;10.976;2022-07-21T00:59:56;12.20;;;11.07;;
48199;SDS011;33990;44.602;10.976;2022-07-21T01:02:23;13.32;;;10.65;;
48199;SDS011;33990;44.602;10.976;2022-07-21T01:04:53;11.15;;;10.00;;
48199;SDS011;33990;44.602;10.976;2022-07-21T01:07:21;11.77;;;10.68;;
48199;SDS011;33990;44.602;10.976;2022-07-21T01:09:48;12.35;;;10.90;;
48199;SDS011;33990;44.602;10.976;2022-07-21T01:12:17;11.35;;;10.18;;
48199;SDS011;33990;44.602;10.976;2022-07-21T01:14:44;11.15;;;10.05;;
48199;SDS011;33990;44.602;10.976;2022-07-21T01:17:12;11.90;;;10.65;;
48199;SDS011;33990;44.602;10.976;2022-07-21T01:19:39;11.43;;;10.30;;
48199;SDS011;33990;44.602;10.976;2022-07-21T01:22:07;11.27;;;10.27;;
48199;SDS011;33990;44.602;10.976;2022-07-21T01:24:35;11.63;;;10.52;;
48199;SDS011;33990;44.602;10.976;2022-07-21T01:27:02;11.45;;;10.35;;
48199;SDS011;33990;44.602;10.976;2022-07-21T01:29:30;11.65;;;10.55;;
48199;SDS011;33990;44.602;10.976;2022-07-21T01:31:57;12.73;;;10.02;;
48199;SDS011;33990;44.602;10.976;2022-07-21T01:34:24;11.07;;;9.98;;
48199;SDS011;33990;44.602;10.976;2022-07-21T01:36:52;12.00;;;10.73;;
48199;SDS011;33990;44.602;10.976;2022-07-21T01:39:19;11.50;;;10.40;;
48199;SDS011;33990;44.602;10.976;2022-07-21T01:42:05;12.05;;;10.77;;
48199;SDS011;33990;44.602;10.976;2022-07-21T01:44:33;11.65;;;10.40;;
48199;SDS011;33990;44.602;10.976;2022-07-21T01:47:00;11.02;;;9.98;;
48199;SDS011;33990;44.602;10.976;2022-07-21T01:49:28;11.25;;;10.18;;
48199;SDS011;33990;44.602;10.976;2022-07-21T01:51:55;11.80;;;10.60;;
48199;SDS011;33990;44.602;10.976;2022-07-21T01:54:23;10.93;;;9.93;;
48199;SDS011;33990;44.602;10.976;2022-07-21T01:56:50;11.93;;;10.55;;
48199;SDS011;33990;44.602;10.976;2022-07-21T01:59:18;11.32;;;10.32;;
48199;SDS011;33990;44.602;10.976;2022-07-21T02:01:46;11.70;;;10.55;;
48199;SDS011;33990;44.602;10.976;2022-07-21T02:04:14;11.80;;;10.65;;
48199;SDS011;33990;44.602;10.976;2022-07-21T02:06:42;12.60;;;11.40;;
48199;SDS011;33990;44.602;10.976;2022-07-21T02:09:09;11.70;;;10.57;;
48199;SDS011;33990;44.602;10.976;2022-07-21T02:11:37;11.75;;;10.55;;
48199;SDS011;33990;44.602;10.976;2022-07-21T02:14:05;11.90;;;10.70;;
48199;SDS011;33990;44.602;10.976;2022-07-21T02:16:33;15.82;;;10.98;;
48199;SDS011;33990;44.602;10.976;2022-07-21T02:19:00;11.82;;;10.60;;
48199;SDS011;33990;44.602;10.976;2022-07-21T02:21:28;12.23;;;10.40;;
48199;SDS011;33990;44.602;10.976;2022-07-21T02:23:55;11.48;;;10.00;;
48199;SDS011;33990;44.602;10.976;2022-07-21T02:26:23;11.82;;;10.73;;
48199;SDS011;33990;44.602;10.976;2022-07-21T02:28:50;12.68;;;11.43;;
48199;SDS011;33990;44.602;10.976;2022-07-21T02:31:18;12.07;;;10.95;;
48199;SDS011;33990;44.602;10.976;2022-07-21T02:33:46;11.13;;;10.13;;
48199;SDS011;33990;44.602;10.976;2022-07-21T02:36:13;11.07;;;9.93;;
48199;SDS011;33990;44.602;10.976;2022-07-21T02:38:40;11.23;;;10.15;;
48199;SDS011;33990;44.602;10.976;2022-07-21T02:41:08;11.10;;;10.20;;
48199;SDS011;33990;44.602;10.976;2022-07-21T02:43:35;11.55;;;9.98;;
48199;SDS011;33990;44.602;10.976;2022-07-21T02:46:03;11.20;;;10.10;;
48199;SDS011;33990;44.602;10.976;2022-07-21T02:48:30;11.23;;;9.43;;
48199;SDS011;33990;44.602;10.976;2022-07-21T02:50:57;11.23;;;10.13;;
48199;SDS011;33990;44.602;10.976;2022-07-21T02:53:25;11.18;;;10.07;;
48199;SDS011;33990;44.602;10.976;2022-07-21T02:55:53;11.57;;;10.48;;
48199;SDS011;33990;44.602;10.976;2022-07-21T02:58:25;10.05;;;9.15;;
48199;SDS011;33990;44.602;10.976;2022-07-21T03:00:55;10.32;;;9.38;;
48199;SDS011;33990;44.602;10.976;2022-07-21T03:03:31;10.50;;;9.40;;
48199;SDS011;33990;44.602;10.976;2022-07-21T03:06:01;10.43;;;9.43;;
48199;SDS011;33990;44.602;10.976;2022-07-21T03:08:28;11.40;;;9.63;;
48199;SDS011;33990;44.602;10.976;2022-07-21T03:10:56;11.48;;;10.02;;
48199;SDS011;33990;44.602;10.976;2022-07-21T03:13:23;10.70;;;9.60;;
48199;SDS011;33990;44.602;10.976;2022-07-21T03:15:51;10.52;;;9.43;;
48199;SDS011;33990;44.602;10.976;2022-07-21T03:18:18;10.18;;;9.23;;
48199;SDS011;33990;44.602;10.976;2022-07-21T03:20:46;10.93;;;9.75;;
48199;SDS011;33990;44.602;10.976;2022-07-21T03:23:14;10.65;;;9.55;;
48199;SDS011;33990;44.602;10.976;2022-07-21T03:25:41;9.88;;;8.95;;
48199;SDS011;33990;44.602;10.976;2022-07-21T03:28:08;10.82;;;9.77;;
48199;SDS011;33990;44.602;10.976;2022-07-21T03:30:36;11.60;;;9.48;;
48199;SDS011;33990;44.602;10.976;2022-07-21T03:33:03;10.77;;;9.68;;
48199;SDS011;33990;44.602;10.976;2022-07-21T03:35:31;10.57;;;9.45;;
48199;SDS011;33990;44.602;10.976;2022-07-21T03:37:59;11.07;;;9.32;;
48199;SDS011;33990;44.602;10.976;2022-07-21T03:40:31;11.60;;;9.93;;
48199;SDS011;33990;44.602;10.976;2022-07-21T03:43:01;11.13;;;10.02;;
48199;SDS011;33990;44.602;10.976;2022-07-21T03:45:30;10.77;;;9.68;;
48199;SDS011;33990;44.602;10.976;2022-07-21T03:47:58;10.23;;;9.23;;
48199;SDS011;33990;44.602;10.976;2022-07-21T03:50:27;10.57;;;9.52;;
48199;SDS011;33990;44.602;10.976;2022-07-21T03:52:55;10.75;;;9.75;;
48199;SDS011;33990;44.602;10.976;2022-07-21T03:55:22;10.82;;;9.82;;
48199;SDS011;33990;44.602;10.976;2022-07-21T03:57:52;11.65;;;10.30;;
48199;SDS011;33990;44.602;10.976;2022-07-21T04:00:20;10.10;;;9.10;;
48199;SDS011;33990;44.602;10.976;2022-07-21T04:02:51;12.35;;;9.80;;
48199;SDS011;33990;44.602;10.976;2022-07-21T04:05:19;10.30;;;9.30;;
48199;SDS011;33990;44.602;10.976;2022-07-21T04:07:47;11.30;;;9.90;;
48199;SDS011;33990;44.602;10.976;2022-07-21T04:10:18;10.38;;;9.30;;
48199;SDS011;33990;44.602;10.976;2022-07-21T04:12:47;10.73;;;9.48;;
48199;SDS011;33990;44.602;10.976;2022-07-21T04:15:16;9.65;;;8.65;;
48199;SDS011;33990;44.602;10.976;2022-07-21T04:17:44;10.73;;;9.60;;
48199;SDS011;33990;44.602;10.976;2022-07-21T04:20:12;10.23;;;9.13;;
48199;SDS011;33990;44.602;10.976;2022-07-21T04:22:41;10.65;;;9.65;;
48199;SDS011;33990;44.602;10.976;2022-07-21T04:25:12;9.73;;;8.73;;
48199;SDS011;33990;44.602;10.976;2022-07-21T04:27:40;12.10;;;9.38;;
48199;SDS011;33990;44.602;10.976;2022-07-21T04:30:09;10.20;;;9.25;;
48199;SDS011;33990;44.602;10.976;2022-07-21T04:32:39;10.35;;;9.35;;
48199;SDS011;33990;44.602;10.976;2022-07-21T04:35:07;10.35;;;9.25;;
48199;SDS011;33990;44.602;10.976;2022-07-21T04:37:35;10.32;;;9.32;;
48199;SDS011;33990;44.602;10.976;2022-07-21T04:40:03;10.38;;;8.68;;
48199;SDS011;33990;44.602;10.976;2022-07-21T04:42:32;10.63;;;9.63;;
48199;SDS011;33990;44.602;10.976;2022-07-21T04:45:02;11.00;;;10.00;;
48199;SDS011;33990;44.602;10.976;2022-07-21T04:47:30;11.50;;;9.85;;
48199;SDS011;33990;44.602;10.976;2022-07-21T04:49:58;10.80;;;9.70;;
48199;SDS011;33990;44.602;10.976;2022-07-21T04:52:25;10.40;;;9.15;;
48199;SDS011;33990;44.602;10.976;2022-07-21T04:54:52;10.77;;;9.77;;
48199;SDS011;33990;44.602;10.976;2022-07-21T04:57:20;10.23;;;9.23;;
48199;SDS011;33990;44.602;10.976;2022-07-21T04:59:47;10.75;;;9.40;;
48199;SDS011;33990;44.602;10.976;2022-07-21T05:02:14;10.00;;;9.07;;
48199;SDS011;33990;44.602;10.976;2022-07-21T05:04:42;9.95;;;9.05;;
48199;SDS011;33990;44.602;10.976;2022-07-21T05:07:09;10.27;;;9.27;;
48199;SDS011;33990;44.602;10.976;2022-07-21T05:09:38;10.57;;;9.57;;
48199;SDS011;33990;44.602;10.976;2022-07-21T05:12:05;10.88;;;9.57;;
48199;SDS011;33990;44.602;10.976;2022-07-21T05:14:32;12.98;;;10.10;;
48199;SDS011;33990;44.602;10.976;2022-07-21T05:17:00;10.35;;;9.30;;
48199;SDS011;33990;44.602;10.976;2022-07-21T05:19:27;10.65;;;9.55;;
48199;SDS011;33990;44.602;10.976;2022-07-21T05:21:55;10.25;;;9.32;;
48199;SDS011;33990;44.602;10.976;2022-07-21T05:24:22;10.82;;;9.65;;
48199;SDS011;33990;44.602;10.976;2022-07-21T05:26:49;9.70;;;8.80;;
48199;SDS011;33990;44.602;10.976;2022-07-21T05:29:17;10.93;;;9.77;;
48199;SDS011;33990;44.602;10.976;2022-07-21T05:31:44;9.70;;;8.80;;
48199;SDS011;33990;44.602;10.976;2022-07-21T05:34:12;9.98;;;9.05;;
48199;SDS011;33990;44.602;10.976;2022-07-21T05:36:39;10.52;;;9.43;;
48199;SDS011;33990;44.602;10.976;2022-07-21T05:39:06;10.00;;;8.93;;
48199;SDS011;33990;44.602;10.976;2022-07-21T05:41:34;11.07;;;9.82;;
48199;SDS011;33990;44.602;10.976;2022-07-21T05:44:01;10.52;;;9.50;;
48199;SDS011;33990;44.602;10.976;2022-07-21T05:46:28;10.80;;;9.43;;
48199;SDS011;33990;44.602;10.976;2022-07-21T05:48:56;10.23;;;9.23;;
48199;SDS011;33990;44.602;10.976;2022-07-21T05:51:23;12.18;;;9.48;;
48199;SDS011;33990;44.602;10.976;2022-07-21T05:53:50;11.65;;;9.85;;
48199;SDS011;33990;44.602;10.976;2022-07-21T05:56:18;11.05;;;9.70;;
48199;SDS011;33990;44.602;10.976;2022-07-21T05:58:45;10.57;;;9.43;;
48199;SDS011;33990;44.602;10.976;2022-07-21T06:01:13;10.55;;;9.27;;
48199;SDS011;33990;44.602;10.976;2022-07-21T06:03:42;13.25;;;9.82;;
48199;SDS011;33990;44.602;10.976;2022-07-21T06:06:12;11.15;;;9.63;;
48199;SDS011;33990;44.602;10.976;2022-07-21T06:08:43;10.02;;;9.02;;
48199;SDS011;33990;44.602;10.976;2022-07-21T06:11:13;10.70;;;9.55;;
48199;SDS011;33990;44.602;10.976;2022-07-21T06:13:42;11.20;;;10.07;;
48199;SDS011;33990;44.602;10.976;2022-07-21T06:16:09;10.77;;;9.68;;
48199;SDS011;33990;44.602;10.976;2022-07-21T06:18:37;12.52;;;9.52;;
48199;SDS011;33990;44.602;10.976;2022-07-21T06:21:04;11.35;;;10.25;;
48199;SDS011;33990;44.602;10.976;2022-07-21T06:23:32;11.40;;;10.07;;
48199;SDS011;33990;44.602;10.976;2022-07-21T06:26:00;11.90;;;10.68;;
48199;SDS011;33990;44.602;10.976;2022-07-21T06:28:27;12.68;;;9.98;;
48199;SDS011;33990;44.602;10.976;2022-07-21T06:30:55;14.15;;;10.90;;
48199;SDS011;33990;44.602;10.976;2022-07-21T06:33:22;11.63;;;10.50;;
48199;SDS011;33990;44.602;10.976;2022-07-21T06:35:49;11.90;;;10.75;;
48199;SDS011;33990;44.602;10.976;2022-07-21T06:38:17;11.70;;;10.60;;
48199;SDS011;33990;44.602;10.976;2022-07-21T06:40:44;10.30;;;9.40;;
48199;SDS011;33990;44.602;10.976;2022-07-21T06:43:12;12.18;;;10.63;;
48199;SDS011;33990;44.602;10.976;2022-07-21T06:45:56;13.85;;;10.90;;
48199;SDS011;33990;44.602;10.976;2022-07-21T06:48:24;11.38;;;10.20;;
48199;SDS011;33990;44.602;10.976;2022-07-21T06:50:52;11.82;;;10.57;;
48199;SDS011;33990;44.602;10.976;2022-07-21T06:53:21;11.93;;;10.57;;
48199;SDS011;33990;44.602;10.976;2022-07-21T06:55:49;11.00;;;9.93;;
48199;SDS011;33990;44.602;10.976;2022-07-21T06:58:29;11.35;;;10.35;;
48199;SDS011;33990;44.602;10.976;2022-07-21T07:01:02;10.95;;;9.85;;
48199;SDS011;33990;44.602;10.976;2022-07-21T07:03:31;11.95;;;10.75;;
48199;SDS011;33990;44.602;10.976;2022-07-21T07:06:02;14.65;;;10.25;;
48199;SDS011;33990;44.602;10.976;2022-07-21T07:08:30;12.93;;;10.38;;
48199;SDS011;33990;44.602;10.976;2022-07-21T07:10:59;12.35;;;11.13;;
48199;SDS011;33990;44.602;10.976;2022-07-21T07:13:26;12.13;;;10.93;;
48199;SDS011;33990;44.602;10.976;2022-07-21T07:16:13;12.80;;;11.70;;
48199;SDS011;33990;44.602;10.976;2022-07-21T07:18:41;14.52;;;11.77;;
48199;SDS011;33990;44.602;10.976;2022-07-21T07:21:08;13.68;;;11.43;;
48199;SDS011;33990;44.602;10.976;2022-07-21T07:23:38;14.23;;;12.60;;
48199;SDS011;33990;44.602;10.976;2022-07-21T07:26:07;13.43;;;12.00;;
48199;SDS011;33990;44.602;10.976;2022-07-21T07:28:34;13.48;;;12.15;;
48199;SDS011;33990;44.602;10.976;2022-07-21T07:31:02;14.30;;;11.52;;
48199;SDS011;33990;44.602;10.976;2022-07-21T07:33:29;12.90;;;11.10;;
48199;SDS011;33990;44.602;10.976;2022-07-21T07:35:57;13.07;;;11.80;;
48199;SDS011;33990;44.602;10.976;2022-07-21T07:38:24;11.32;;;10.13;;
48199;SDS011;33990;44.602;10.976;2022-07-21T07:40:52;11.80;;;10.80;;
48199;SDS011;33990;44.602;10.976;2022-07-21T07:43:19;12.55;;;11.32;;
48199;SDS011;33990;44.602;10.976;2022-07-21T07:45:47;12.63;;;10.20;;
48199;SDS011;33990;44.602;10.976;2022-07-21T07:48:14;11.88;;;10.38;;
48199;SDS011;33990;44.602;10.976;2022-07-21T07:50:42;12.23;;;9.32;;
48199;SDS011;33990;44.602;10.976;2022-07-21T07:53:09;10.68;;;9.68;;
48199;SDS011;33990;44.602;10.976;2022-07-21T07:55:36;11.20;;;10.15;;
48199;SDS011;33990;44.602;10.976;2022-07-21T07:58:04;9.82;;;8.88;;
48199;SDS011;33990;44.602;10.976;2022-07-21T08:00:31;10.23;;;9.05;;
48199;SDS011;33990;44.602;10.976;2022-07-21T08:03:18;12.40;;;9.98;;
48199;SDS011;33990;44.602;10.976;2022-07-21T08:05:46;9.65;;;8.75;;
48199;SDS011;33990;44.602;10.976;2022-07-21T08:08:14;9.27;;;8.38;;
48199;SDS011;33990;44.602;10.976;2022-07-21T08:10:43;11.30;;;8.52;;
48199;SDS011;33990;44.602;10.976;2022-07-21T08:13:13;12.18;;;9.52;;
48199;SDS011;33990;44.602;10.976;2022-07-21T08:15:43;10.23;;;9.07;;
48199;SDS011;33990;44.602;10.976;2022-07-21T08:18:12;11.00;;;9.20;;
48199;SDS011;33990;44.602;10.976;2022-07-21T08:20:40;9.70;;;8.80;;
48199;SDS011;33990;44.602;10.976;2022-07-21T08:23:08;9.05;;;8.15;;
48199;SDS011;33990;44.602;10.976;2022-07-21T08:25:38;10.43;;;9.32;;
48199;SDS011;33990;44.602;10.976;2022-07-21T08:28:06;9.50;;;8.57;;
48199;SDS011;33990;44.602;10.976;2022-07-21T08:30:34;9.63;;;8.32;;
48199;SDS011;33990;44.602;10.976;2022-07-21T08:33:03;9.93;;;8.80;;
48199;SDS011;33990;44.602;10.976;2022-07-21T08:35:31;8.98;;;8.18;;
48199;SDS011;33990;44.602;10.976;2022-07-21T08:38:02;9.50;;;8.55;;
48199;SDS011;33990;44.602;10.976;2022-07-21T08:40:32;10.23;;;8.68;;
48199;SDS011;33990;44.602;10.976;2022-07-21T08:43:02;9.13;;;8.32;;
48199;SDS011;33990;44.602;10.976;2022-07-21T08:45:30;11.40;;;8.00;;
48199;SDS011;33990;44.602;10.976;2022-07-21T08:47:58;10.13;;;9.20;;
48199;SDS011;33990;44.602;10.976;2022-07-21T08:50:30;9.15;;;8.20;;
48199;SDS011;33990;44.602;10.976;2022-07-21T08:53:06;10.85;;;9.00;;
48199;SDS011;33990;44.602;10.976;2022-07-21T08:55:34;10.75;;;9.13;;
48199;SDS011;33990;44.602;10.976;2022-07-21T08:58:07;10.98;;;8.52;;
48199;SDS011;33990;44.602;10.976;2022-07-21T09:00:37;11.48;;;8.82;;
48199;SDS011;33990;44.602;10.976;2022-07-21T09:03:26;10.43;;;9.43;;
48199;SDS011;33990;44.602;10.976;2022-07-21T09:08:34;10.43;;;8.93;;
48199;SDS011;33990;44.602;10.976;2022-07-21T09:11:14;11.07;;;8.60;;
48199;SDS011;33990;44.602;10.976;2022-07-21T09:13:46;9.13;;;8.25;;
48199;SDS011;33990;44.602;10.976;2022-07-21T09:19:31;8.32;;;7.53;;
48199;SDS011;33990;44.602;10.976;2022-07-21T09:22:03;8.02;;;6.85;;
48199;SDS011;33990;44.602;10.976;2022-07-21T09:24:34;8.27;;;6.43;;
48199;SDS011;33990;44.602;10.976;2022-07-21T09:27:11;9.27;;;7.00;;
48199;SDS011;33990;44.602;10.976;2022-07-21T09:29:53;8.02;;;7.00;;
48199;SDS011;33990;44.602;10.976;2022-07-21T09:32:28;8.02;;;6.18;;
48199;SDS011;33990;44.602;10.976;2022-07-21T09:37:34;7.78;;;6.15;;
48199;SDS011;33990;44.602;10.976;2022-07-21T09:40:04;7.25;;;5.80;;
48199;SDS011;33990;44.602;10.976;2022-07-21T09:42:38;7.90;;;5.72;;
48199;SDS011;33990;44.602;10.976;2022-07-21T09:45:08;7.43;;;6.30;;
48199;SDS011;33990;44.602;10.976;2022-07-21T09:47:38;6.97;;;6.10;;
48199;SDS011;33990;44.602;10.976;2022-07-21T09:50:08;8.13;;;6.43;;
48199;SDS011;33990;44.602;10.976;2022-07-21T09:52:55;6.75;;;6.03;;
48199;SDS011;33990;44.602;10.976;2022-07-21T09:55:25;6.60;;;6.00;;
48199;SDS011;33990;44.602;10.976;2022-07-21T09:57:52;8.65;;;6.32;;
48199;SDS011;33990;44.602;10.976;2022-07-21T10:00:22;8.85;;;5.70;;
48199;SDS011;33990;44.602;10.976;2022-07-21T10:02:49;6.60;;;6.00;;
48199;SDS011;33990;44.602;10.976;2022-07-21T10:05:19;6.57;;;5.47;;
48199;SDS011;33990;44.602;10.976;2022-07-21T10:07:55;6.97;;;6.25;;
48199;SDS011;33990;44.602;10.976;2022-07-21T10:10:23;9.05;;;5.75;;
48199;SDS011;33990;44.602;10.976;2022-07-21T10:13:10;6.53;;;5.93;;
48199;SDS011;33990;44.602;10.976;2022-07-21T10:15:38;6.50;;;5.72;;
48199;SDS011;33990;44.602;10.976;2022-07-21T10:18:06;8.05;;;6.05;;
48199;SDS011;33990;44.602;10.976;2022-07-21T10:20:37;6.10;;;5.32;;
48199;SDS011;33990;44.602;10.976;2022-07-21T10:26:06;6.13;;;5.38;;
48199;SDS011;33990;44.602;10.976;2022-07-21T10:28:34;6.70;;;5.45;;
48199;SDS011;33990;44.602;10.976;2022-07-21T10:31:15;7.63;;;5.68;;
48199;SDS011;33990;44.602;10.976;2022-07-21T10:41:36;5.78;;;5.22;;
48199;SDS011;33990;44.602;10.976;2022-07-21T10:44:37;7.88;;;6.40;;
48199;SDS011;33990;44.602;10.976;2022-07-21T10:49:42;5.68;;;5.07;;
48199;SDS011;33990;44.602;10.976;2022-07-21T10:57:44;8.20;;;6.07;;
48199;SDS011;33990;44.602;10.976;2022-07-21T11:00:26;5.82;;;5.22;;
48199;SDS011;33990;44.602;10.976;2022-07-21T11:02:59;6.80;;;6.10;;
48199;SDS011;33990;44.602;10.976;2022-07-21T11:05:32;6.28;;;5.68;;
48199;SDS011;33990;44.602;10.976;2022-07-21T11:08:10;6.37;;;5.40;;
48199;SDS011;33990;44.602;10.976;2022-07-21T11:10:39;6.63;;;5.20;;
48199;SDS011;33990;44.602;10.976;2022-07-21T11:13:09;8.15;;;5.32;;
48199;SDS011;33990;44.602;10.976;2022-07-21T11:15:45;5.72;;;5.20;;
48199;SDS011;33990;44.602;10.976;2022-07-21T11:18:25;6.22;;;5.18;;
48199;SDS011;33990;44.602;10.976;2022-07-21T11:21:10;5.75;;;5.25;;
48199;SDS011;33990;44.602;10.976;2022-07-21T11:23:48;5.40;;;4.88;;
48199;SDS011;33990;44.602;10.976;2022-07-21T11:26:18;5.55;;;4.97;;
48199;SDS011;33990;44.602;10.976;2022-07-21T11:29:06;5.68;;;5.13;;
48199;SDS011;33990;44.602;10.976;2022-07-21T11:31:44;5.35;;;4.85;;
48199;SDS011;33990;44.602;10.976;2022-07-21T11:34:13;5.13;;;4.63;;
48199;SDS011;33990;44.602;10.976;2022-07-21T11:36:41;5.78;;;5.18;;
48199;SDS011;33990;44.602;10.976;2022-07-21T11:39:12;5.80;;;4.72;;
48199;SDS011;33990;44.602;10.976;2022-07-21T11:41:42;5.18;;;4.68;;
48199;SDS011;33990;44.602;10.976;2022-07-21T11:44:10;5.88;;;4.60;;
48199;SDS011;33990;44.602;10.976;2022-07-21T11:46:47;6.40;;;4.55;;
48199;SDS011;33990;44.602;10.976;2022-07-21T11:49:17;6.35;;;4.25;;
48199;SDS011;33990;44.602;10.976;2022-07-21T11:51:46;5.70;;;5.10;;
48199;SDS011;33990;44.602;10.976;2022-07-21T11:56:52;6.43;;;5.07;;
48199;SDS011;33990;44.602;10.976;2022-07-21T11:59:21;6.32;;;4.50;;
48199;SDS011;33990;44.602;10.976;2022-07-21T12:02:00;5.45;;;4.75;;
48199;SDS011;33990;44.602;10.976;2022-07-21T12:04:31;5.45;;;4.90;;
48199;SDS011;33990;44.602;10.976;2022-07-21T12:07:20;4.82;;;4.32;;
48199;SDS011;33990;44.602;10.976;2022-07-21T12:10:12;5.05;;;4.55;;
48199;SDS011;33990;44.602;10.976;2022-07-21T12:12:44;5.32;;;4.65;;
48199;SDS011;33990;44.602;10.976;2022-07-21T12:15:19;5.47;;;4.85;;
48199;SDS011;33990;44.602;10.976;2022-07-21T12:17:53;4.47;;;4.05;;
48199;SDS011;33990;44.602;10.976;2022-07-21T12:20:28;5.38;;;4.50;;
48199;SDS011;33990;44.602;10.976;2022-07-21T12:22:59;6.43;;;4.53;;
48199;SDS011;33990;44.602;10.976;2022-07-21T12:25:32;5.68;;;4.72;;
48199;SDS011;33990;44.602;10.976;2022-07-21T12:28:00;6.18;;;4.85;;
48199;SDS011;33990;44.602;10.976;2022-07-21T12:30:36;7.07;;;5.53;;
48199;SDS011;33990;44.602;10.976;2022-07-21T12:33:09;5.40;;;4.90;;
48199;SDS011;33990;44.602;10.976;2022-07-21T12:41:07;5.05;;;4.55;;
48199;SDS011;33990;44.602;10.976;2022-07-21T12:43:57;4.60;;;4.03;;
48199;SDS011;33990;44.602;10.976;2022-07-21T12:46:27;4.85;;;4.35;;
48199;SDS011;33990;44.602;10.976;2022-07-21T12:49:07;6.43;;;4.65;;
48199;SDS011;33990;44.602;10.976;2022-07-21T12:51:41;6.00;;;5.00;;
48199;SDS011;33990;44.602;10.976;2022-07-21T12:54:09;5.35;;;4.60;;
48199;SDS011;33990;44.602;10.976;2022-07-21T12:56:37;4.78;;;4.38;;
48199;SDS011;33990;44.602;10.976;2022-07-21T12:59:04;5.82;;;4.95;;
48199;SDS011;33990;44.602;10.976;2022-07-21T13:01:33;5.68;;;4.75;;
48199;SDS011;33990;44.602;10.976;2022-07-21T13:04:01;4.72;;;4.32;;
48199;SDS011;33990;44.602;10.976;2022-07-21T13:06:30;4.88;;;4.35;;
48199;SDS011;33990;44.602;10.976;2022-07-21T13:08:58;4.93;;;4.43;;
48199;SDS011;33990;44.602;10.976;2022-07-21T13:11:26;4.55;;;4.15;;
48199;SDS011;33990;44.602;10.976;2022-07-21T13:13:53;4.85;;;4.30;;
48199;SDS011;33990;44.602;10.976;2022-07-21T13:16:24;4.70;;;4.22;;
48199;SDS011;33990;44.602;10.976;2022-07-21T13:18:52;6.38;;;4.22;;
48199;SDS011;33990;44.602;10.976;2022-07-21T13:21:20;5.45;;;4.90;;
48199;SDS011;33990;44.602;10.976;2022-07-21T13:23:47;4.53;;;4.07;;
48199;SDS011;33990;44.602;10.976;2022-07-21T13:26:14;4.00;;;3.53;;
48199;SDS011;33990;44.602;10.976;2022-07-21T13:28:42;4.80;;;4.18;;
48199;SDS011;33990;44.602;10.976;2022-07-21T13:31:09;5.57;;;4.35;;
48199;SDS011;33990;44.602;10.976;2022-07-21T13:33:37;4.80;;;4.28;;
48199;SDS011;33990;44.602;10.976;2022-07-21T13:36:06;4.38;;;3.97;;
48199;SDS011;33990;44.602;10.976;2022-07-21T13:38:35;5.53;;;4.60;;
48199;SDS011;33990;44.602;10.976;2022-07-21T13:41:05;5.57;;;3.95;;
48199;SDS011;33990;44.602;10.976;2022-07-21T13:44:01;4.28;;;3.55;;
48199;SDS011;33990;44.602;10.976;2022-07-21T13:46:28;5.07;;;3.70;;
48199;SDS011;33990;44.602;10.976;2022-07-21T13:48:56;5.40;;;4.30;;
48199;SDS011;33990;44.602;10.976;2022-07-21T13:51:23;5.53;;;3.70;;
48199;SDS011;33990;44.602;10.976;2022-07-21T13:53:51;4.85;;;3.88;;
48199;SDS011;33990;44.602;10.976;2022-07-21T13:56:19;4.30;;;3.67;;
48199;SDS011;33990;44.602;10.976;2022-07-21T13:58:47;5.03;;;3.78;;
48199;SDS011;33990;44.602;10.976;2022-07-21T14:01:14;4.97;;;4.07;;
48199;SDS011;33990;44.602;10.976;2022-07-21T14:03:42;4.05;;;3.65;;
48199;SDS011;33990;44.602;10.976;2022-07-21T14:06:11;4.70;;;3.95;;
48199;SDS011;33990;44.602;10.976;2022-07-21T14:08:39;4.43;;;3.70;;
48199;SDS011;33990;44.602;10.976;2022-07-21T14:11:07;5.15;;;3.83;;
48199;SDS011;33990;44.602;10.976;2022-07-21T14:13:35;6.07;;;4.25;;
48199;SDS011;33990;44.602;10.976;2022-07-21T14:16:03;4.88;;;3.38;;
48199;SDS011;33990;44.602;10.976;2022-07-21T14:18:31;3.80;;;3.40;;
48199;SDS011;33990;44.602;10.976;2022-07-21T14:20:59;4.25;;;3.83;;
48199;SDS011;33990;44.602;10.976;2022-07-21T14:23:29;4.72;;;3.80;;
48199;SDS011;33990;44.602;10.976;2022-07-21T14:25:58;4.28;;;3.78;;
48199;SDS011;33990;44.602;10.976;2022-07-21T14:28:26;3.97;;;3.38;;
48199;SDS011;33990;44.602;10.976;2022-07-21T14:30:53;5.00;;;3.65;;
48199;SDS011;33990;44.602;10.976;2022-07-21T14:33:26;4.85;;;4.15;;
48199;SDS011;33990;44.602;10.976;2022-07-21T14:35:58;5.18;;;4.10;;
48199;SDS011;33990;44.602;10.976;2022-07-21T14:38:25;4.68;;;3.88;;
48199;SDS011;33990;44.602;10.976;2022-07-21T14:40:54;4.28;;;3.83;;
48199;SDS011;33990;44.602;10.976;2022-07-21T14:43:22;4.10;;;3.63;;
48199;SDS011;33990;44.602;10.976;2022-07-21T14:45:50;5.75;;;3.95;;
48199;SDS011;33990;44.602;10.976;2022-07-21T14:48:17;4.47;;;3.65;;
48199;SDS011;33990;44.602;10.976;2022-07-21T14:50:45;4.22;;;3.38;;
48199;SDS011;33990;44.602;10.976;2022-07-21T14:53:12;4.20;;;3.80;;
48199;SDS011;33990;44.602;10.976;2022-07-21T14:55:42;3.88;;;3.47;;
48199;SDS011;33990;44.602;10.976;2022-07-21T15:02:34;4.00;;;3.58;;
48199;SDS011;33990;44.602;10.976;2022-07-21T15:05:02;4.22;;;3.78;;
48199;SDS011;33990;44.602;10.976;2022-07-21T15:07:30;5.45;;;4.10;;
48199;SDS011;33990;44.602;10.976;2022-07-21T15:09:57;4.63;;;3.50;;
48199;SDS011;33990;44.602;10.976;2022-07-21T15:12:31;4.15;;;3.45;;
48199;SDS011;33990;44.602;10.976;2022-07-21T15:14:58;3.67;;;3.38;;
48199;SDS011;33990;44.602;10.976;2022-07-21T15:17:25;5.85;;;4.15;;